Paris-Orly Airport

LFPO · Département de l'Essonne, Région Île-de-France, France

METAR anciennes LFPO · Aéroport de Paris–Orly

Tu vois ci-dessous les METAR des derniers jours. Sélectionne une année pour parcourir les METAR plus anciens, à partir de l'année 2007.

28 février 2024

Temps Code Temps Temp. Vue Base cloud Vent METAR/SPECI
10:00
V
6 °C 10 km+ 26.000 ft Var Var 3 kt METAR LFPO 280900Z VRB03KT 9999 FEW006 BKN260 06/04 Q1024 NOSIG
09:30
V
4 °C 10 km+ - 240° 240° 4 kt METAR LFPO 280830Z 24004KT 9999 FEW017 SCT260 04/03 Q1024 NOSIG
09:00
V
3 °C 8 km - 240° 240° 4 kt METAR LFPO 280800Z 24004KT 8000 FEW017 03/02 Q1023 NOSIG
08:30
M
1 °C 8 km 1.700 ft 220° 220° 3 kt METAR LFPO 280730Z 22003KT 8000 BKN017 01/01 Q1023 NOSIG
08:00
V
1 °C 8 km - 220° 220° 3 kt METAR LFPO 280700Z 22003KT 8000 FEW016 01/00 Q1023 NOSIG
07:30
V
1 °C 8 km - 220° 220° 3 kt METAR LFPO 280630Z 22003KT 8000 FEW008 01/00 Q1023 NOSIG
07:00
V
1 °C 8 km - 230° 230° 3 kt METAR LFPO 280600Z 23003KT 8000 SCT017 01/00 Q1023 NOSIG
06:30
V
1 °C 10 km+ - 260° 260° 3 kt METAR LFPO 280530Z 26003KT CAVOK 01/00 Q1023
06:00
V
2 °C 10 km+ - 250° 250° 5 kt METAR LFPO 280500Z 25005KT CAVOK 02/01 Q1022
05:30
V
2 °C 10 km+ - 230° 230° 3 kt METAR LFPO 280430Z 23003KT CAVOK 02/01 Q1022
05:00
V
2 °C 8 km - 260° 260° 3 kt METAR LFPO 280400Z AUTO 26003KT 8000 NSC 02/01 Q1022 TEMPO 4000 BR
04:30
V
2 °C 10 km+ - 270° 270° 3 kt METAR LFPO 280330Z AUTO 27003KT CAVOK 02/01 Q1022 TEMPO 4000 BR
04:00
V
2 °C 10 km+ - 260° 260° 3 kt METAR LFPO 280300Z AUTO 26003KT CAVOK 02/01 Q1022 TEMPO 4000 BR
03:30
V
2 °C 10 km+ - 230° 230° 3 kt METAR LFPO 280230Z AUTO 23003KT CAVOK 02/01 Q1022 TEMPO 4000 BR
03:00
V
2 °C 10 km+ - Var Var 2 kt METAR LFPO 280200Z AUTO VRB02KT CAVOK 02/01 Q1022 NOSIG
02:30
V
2 °C 10 km+ - 170° 170° 2 kt METAR LFPO 280130Z AUTO 17002KT CAVOK 02/01 Q1022 NOSIG
02:00
V
3 °C 10 km+ - Var Var 1 kt METAR LFPO 280100Z VRB01KT CAVOK 03/01 Q1022 NOSIG
01:30
V
3 °C 10 km+ - 340° 340° 6 kt METAR LFPO 280030Z 34006KT CAVOK 03/01 Q1022 NOSIG
01:00
V
4 °C 10 km+ - 330° 330° 8 kt METAR LFPO 280000Z 33008KT CAVOK 04/01 Q1022 NOSIG
00:30
V
4 °C 10 km+ - 330° 330° 13 kt METAR LFPO 272330Z 33013KT CAVOK 04/02 Q1021 NOSIG
00:00
V
5 °C 10 km+ - 320° 320° 11 kt METAR LFPO 272300Z 32011KT CAVOK 05/02 Q1021 NOSIG

27 février 2024

Temps Code Temps Temp. Vue Base cloud Vent METAR/SPECI
23:30
V
5 °C 10 km+ - 330° 330° 10 kt METAR LFPO 272230Z 33010KT CAVOK 05/02 Q1021 NOSIG
23:00
V
5 °C 10 km+ - 330° 330° 9 kt METAR LFPO 272200Z 33009KT CAVOK 05/02 Q1021 NOSIG
22:30
V
6 °C 10 km+ - 320° 320° 9 kt METAR LFPO 272130Z 32009KT CAVOK 06/03 Q1021 NOSIG
22:00
V
6 °C 10 km+ - 330° 330° 10 kt METAR LFPO 272100Z 33010KT CAVOK 06/03 Q1021 NOSIG
21:30
V
6 °C 10 km+ 19.000 ft 330° 330° 6 kt METAR LFPO 272030Z 33006KT 9999 FEW026 SCT150 BKN190 06/03 Q1021 NOSIG
21:00
V
7 °C 10 km+ 19.000 ft 330° 330° 9 kt METAR LFPO 272000Z 33009KT 310V010 9999 SCT026 SCT160 BKN190 07/03 Q1020 NOSIG
20:30
V
8 °C 10 km+ 23.000 ft 340° 340° 7 kt METAR LFPO 271930Z 34007KT 9999 SCT027 BKN230 08/03 Q1020 NOSIG
20:00
M
7 °C 10 km+ 2.700 ft 330° 330° 9 kt METAR LFPO 271900Z 33009KT 300V010 9999 BKN027 BKN230 07/03 Q1020 NOSIG
19:30
V
7 °C 10 km+ - 360° 360° 7 kt METAR LFPO 271830Z 36007KT 340V040 CAVOK 07/03 Q1019 NOSIG
19:00
V
8 °C 10 km+ - 360° 360° 8 kt METAR LFPO 271800Z 36008KT CAVOK 08/03 Q1019 NOSIG
18:30
V
8 °C 10 km+ 26.000 ft 360° 360° 10 kt METAR LFPO 271730Z 36010KT 9999 FEW031 BKN260 08/03 Q1018 NOSIG
18:00
V
8 °C 10 km+ 26.000 ft 350° 350° 11 kt METAR LFPO 271700Z 35011KT 9999 FEW031 BKN260 08/03 Q1018 NOSIG
17:30
V
9 °C 10 km+ 26.000 ft 350° 350° 9 kt METAR LFPO 271630Z 35009KT 320V020 9999 SCT031 BKN260 09/03 Q1018 NOSIG
17:00
V
9 °C 10 km+ 26.000 ft 350° 350° 12 kt METAR LFPO 271600Z 35012KT 320V030 9999 SCT028 BKN260 09/04 Q1017 NOSIG
16:30
V
9 °C 10 km+ 26.000 ft 350° 350° 13 kt METAR LFPO 271530Z 35013KT 9999 SCT025 BKN260 09/04 Q1017 NOSIG
16:00
V
9 °C 10 km+ 26.000 ft 350° 350° 12 kt METAR LFPO 271500Z 35012KT 9999 SCT024 OVC260 09/04 Q1017 NOSIG
15:30
M
8 °C 10 km+ 2.200 ft 360° 360° 9 kt METAR LFPO 271430Z 36009KT 330V030 9999 BKN022 08/04 Q1017 NOSIG
15:00
M
8 °C 10 km+ 2.000 ft 010° 010° 11 kt METAR LFPO 271400Z 01011KT 340V040 9999 BKN020 08/04 Q1018 NOSIG
14:30
M
7 °C 10 km+ 1.900 ft 020° 020° 11 kt METAR LFPO 271330Z 02011KT 9999 BKN019 07/04 Q1017 NOSIG
14:00
M
7 °C 10 km+ 1.900 ft 020° 020° 11 kt METAR LFPO 271300Z 02011KT 9999 BKN019 07/04 Q1018 NOSIG
13:00
M
7 °C 10 km+ 1.800 ft 030° 030° 12 kt METAR LFPO 271200Z 03012KT 9999 BKN018 07/03 Q1018 NOSIG
12:30
M
7 °C 10 km+ 1.800 ft 010° 010° 13 kt METAR LFPO 271130Z 01013KT 330V030 9999 OVC018 07/03 Q1018 NOSIG
12:00
M
6 °C 10 km+ 1.600 ft 010° 010° 12 kt METAR LFPO 271100Z 01012KT 9999 BKN016 06/03 Q1018 NOSIG
11:30
M
6 °C 10 km+ 1.400 ft 360° 360° 12 kt METAR LFPO 271030Z 36012KT 9999 OVC014 06/03 Q1018 NOSIG
11:00
M
5 °C 8 km 1.300 ft 010° 010° 14 kt METAR LFPO 271000Z 01014KT 330V030 8000 OVC013 05/03 Q1017 NOSIG
10:30
M
5 °C 8 km 1.200 ft 010° 010° 13 kt METAR LFPO 270930Z 01013KT 320V050 8000 OVC012 05/03 Q1017 NOSIG
10:00
M
5 °C 8 km 1.200 ft 010° 010° 13 kt METAR LFPO 270900Z 01013KT 8000 BKN012 05/03 Q1017 NOSIG
09:30
M
5 °C 8 km 1.200 ft 360° 360° 11 kt METAR LFPO 270830Z 36011KT 8000 BKN012 05/03 Q1017 NOSIG
09:00
M
5 °C 8 km 1.200 ft 010° 010° 11 kt METAR LFPO 270800Z 01011KT 340V040 8000 OVC012 05/03 Q1016 NOSIG
08:30
M
5 °C 8 km 1.200 ft 020° 020° 12 kt METAR LFPO 270730Z 02012KT 8000 OVC012 05/03 Q1016 TEMPO BKN009
08:00
M
5 °C 8 km 1.200 ft 010° 010° 14 kt METAR LFPO 270700Z 01014KT 8000 OVC012 05/03 Q1016 TEMPO BKN009
07:30
M
5 °C 8 km 1.300 ft 020° 020° 15 kt METAR LFPO 270630Z 02015KT 8000 OVC013 05/03 Q1015 NOSIG
07:00
M
5 °C 8 km 1.300 ft 010° 010° 11 kt METAR LFPO 270600Z 01011KT 340V050 8000 OVC013 05/03 Q1015 NOSIG
06:30
M
5 °C 8 km 1.200 ft 010° 010° 13 kt METAR LFPO 270530Z 01013KT 340V040 8000 OVC012 05/03 Q1015 NOSIG
06:00
M
5 °C 8 km 1.100 ft 010° 010° 13 kt METAR LFPO 270500Z 01013KT 8000 OVC011 05/03 Q1014 NOSIG
05:30
M
5 °C 10 km+ 1.100 ft 360° 360° 15 kt METAR LFPO 270430Z 36015KT 9999 OVC011 05/03 Q1014 TEMPO BKN009
05:00
M
6 °C 8 km 1.200 ft 010° 010° 13 kt METAR LFPO 270400Z AUTO 01013KT 8000 OVC012 06/04 Q1013 TEMPO BKN009 BECMG 01015G25KT
04:30
M
6 °C 9 km 1.200 ft 010° 010° 14 kt METAR LFPO 270330Z AUTO 01014KT 340V040 9000 OVC012 06/04 Q1013 TEMPO BKN009 BECMG 01015G25KT
04:00
M
6 °C 8 km 1.100 ft 010° 010° 12 kt METAR LFPO 270300Z AUTO 01012KT 8000 OVC011 06/04 Q1013 TEMPO BKN009 BECMG 01015G25KT
03:30
M
6 °C 9 km 1.100 ft 020° 020° 16 kt METAR LFPO 270230Z AUTO 02016KT 350V050 9000 OVC011 06/04 Q1013 TEMPO BKN009 BECMG 01015G25KT
03:00
M
6 °C 9 km 1.100 ft 020° 020° 13 kt METAR LFPO 270200Z AUTO 02013KT 9000 OVC011 06/04 Q1012 TEMPO BKN009 BECMG 01015G25KT
02:30
M
6 °C 10 km+ 1.100 ft 030° 030° 15 kt METAR LFPO 270130Z AUTO 03015KT 360V060 9999 -RA OVC011 06/04 Q1012 TEMPO BKN009 BECMG 01015G25KT
02:00
M
6 °C 10 km+ 1.000 ft 020° 020° 14 kt METAR LFPO 270100Z 02014KT 350V060 9999 OVC010 06/04 Q1012 TEMPO BKN009
01:30
M
6 °C 10 km+ 1.000 ft 020° 020° 16 kt METAR LFPO 270030Z 02016KT 9999 OVC010 06/04 Q1011 TEMPO BKN009
01:00
M
6 °C 10 km+ 1.000 ft 020° 020° 15 kt METAR LFPO 270000Z 02015KT 350V050 9999 OVC010 06/05 Q1011 TEMPO 02017G32KT
00:30
M
6 °C 10 km+ 1.100 ft 020° 020° 15 kt METAR LFPO 262330Z 02015KT 9999 -RA OVC011 06/05 Q1010 TEMPO 02017G32KT
00:00
M
6 °C 10 km+ 1.100 ft 020° 020° 15 kt METAR LFPO 262300Z 02015KT 9999 OVC011 06/05 Q1010 TEMPO 02017G32KT

26 février 2024

Temps Code Temps Temp. Vue Base cloud Vent METAR/SPECI
23:30
M
6 °C 10 km+ 1.000 ft 020° 020° 16 kt METAR LFPO 262230Z 02016KT 9999 OVC010 06/05 Q1009 TEMPO 02017G32KT
23:00
M
6 °C 10 km+ 1.000 ft 020° 020° 16 kt METAR LFPO 262200Z 02016KT 9999 OVC010 06/05 Q1009 TEMPO 02017G32KT
22:30
M
6 °C 10 km+ 1.000 ft 020° 020° 14 kt METAR LFPO 262130Z 02014KT 9999 BKN010 06/05 Q1008 TEMPO 02017G32KT
22:00
M
6 °C 6 km 1.000 ft 020° 020° 15 kt METAR LFPO 262100Z 02015KT 6000 -RA BKN010 06/05 Q1008 TEMPO 02017G32KT
21:00
M
6 °C 6 km 1.000 ft 020° 020° 18 kt METAR LFPO 262000Z 02018KT 6000 -RA BKN010 06/04 Q1006 TEMPO 02017G32KT
20:30
M
6 °C 6 km 1.000 ft 030° 030° 17 kt METAR LFPO 261930Z 03017KT 6000 -RA BKN010 06/04 Q1006 TEMPO 02017G32KT
20:00
M
6 °C 6 km 1.000 ft 020° 020° 16 kt METAR LFPO 261900Z 02016KT 350V050 6000 -RA BKN010 06/04 Q1005 TEMPO 02017G32KT
19:30
M
6 °C 6 km 1.000 ft 020° 020° 16 kt METAR LFPO 261830Z 02016KT 340V040 6000 RA BKN010 06/05 Q1004 TEMPO 02017G32KT
19:00
I
6 °C 6 km 800 ft 020° 020° 18 kt METAR LFPO 261800Z 02018KT 6000 RA BKN008 06/05 Q1003 TEMPO 02017G32KT
18:30
I
6 °C 6 km 800 ft 020° 020° 20 kt METAR LFPO 261730Z 02020KT 6000 -RA BKN008 06/05 Q1002 TEMPO 02020G32KT
18:00
I
6 °C 4,5 km 800 ft 020° 020° 15 kt METAR LFPO 261700Z 02015KT 4500 -RA BKN008 06/05 Q1001 TEMPO 02017G30KT 2500 RA
17:30
I
7 °C 5 km 900 ft 020° 020° 18 kt METAR LFPO 261630Z 02018KT 350V050 5000 -RA BKN009 07/05 Q1001 TEMPO 02017G30KT 2500 RA BKN008 SCT012TCU
17:00
I
7 °C 4 km 800 ft 020° 020° 17 kt METAR LFPO 261600Z 02017KT 4000 -RA BKN008 07/06 Q1000 TEMPO 02017G30KT 2500 RA BKN008 SCT012TCU
16:30
I
7 °C 10 km+ 800 ft 020° 020° 18 - 29 kt METAR LFPO 261530Z 02018G29KT 9999 -RA BKN008 SCT012TCU 07/06 Q0999 TEMPO RA
15:30
I
8 °C 10 km+ 900 ft 010° 010° 14 kt METAR LFPO 261430Z 01014KT 340V040 9999 -RA BKN009 08/07 Q0998 TEMPO 02015G30KT 4000 RA BKN009TCU
14:30
I
8 °C 10 km+ 600 ft 020° 020° 14 kt METAR LFPO 261330Z 02014KT 9999 -RA FEW005 BKN006 SCT012TCU 08/07 Q0997 TEMPO 02015G28KT 4000 RA
14:00
I
9 °C 4,5 km 600 ft 010° 010° 12 kt METAR LFPO 261300Z 01012KT 4500 RA FEW005 BKN006 BKN012TCU 09/08 Q0997 TEMPO 01015G28KT 9999 NSW
13:30
I
9 °C 4 km 600 ft 020° 020° 10 kt METAR LFPO 261230Z 02010KT 340V060 4000 RA BKN006 BKN012TCU BKN024 09/08 Q0997 TEMPO 2500 RADZ
13:00
M
10 °C 6 km 1.200 ft 040° 040° 11 kt METAR LFPO 261200Z 04011KT 6000 RA BKN012TCU BKN024 10/08 Q0996 TEMPO 4000 RADZ BKN009TCU
12:30
I
10 °C 10 km+ 900 ft 040° 040° 9 kt METAR LFPO 261130Z 04009KT 9999 -RA BKN009 BKN024 10/08 Q0996 TEMPO 4000 RADZ BKN009TCU
12:00
I
10 °C 10 km+ 900 ft 050° 050° 8 kt METAR LFPO 261100Z 05008KT 9999 -RA BKN009 BKN024 10/09 Q0996 TEMPO 4000 RADZ BKN009TCU
11:30
I
10 °C 10 km+ 700 ft 050° 050° 8 kt METAR LFPO 261030Z 05008KT 9999 -SHRA BKN007 BKN030 10/09 Q0995 TEMPO SHRA BKN007TCU
11:00
I
9 °C 10 km+ 600 ft 080° 080° 7 kt METAR LFPO 261000Z 08007KT 9999 BKN006 BKN030 09/08 Q0995 NOSIG
10:30
I
9 °C 10 km+ 600 ft 080° 080° 7 kt METAR LFPO 260930Z 08007KT 9999 -RA FEW004 BKN006 09/08 Q0994 TEMPO 4000 SHRA BKN009TCU
10:00
I
9 °C 10 km+ 600 ft 090° 090° 7 kt METAR LFPO 260900Z 09007KT 9999 -RA FEW004 BKN006 BKN020 09/08 Q0994 TEMPO 4000 SHRA BKN009TCU
09:30
I
8 °C 10 km+ 600 ft 060° 060° 5 kt METAR LFPO 260830Z 06005KT 9999 FEW003 BKN006 BKN012 08/08 Q0993 TEMPO 4000 SHRA BKN009TCU
09:00
L
8 °C 4,5 km 400 ft 080° 080° 5 kt METAR LFPO 260800Z 08005KT 4500 2000N -DZ BR FEW002 BKN004 BKN012 08/07 Q0993 TEMPO 9999 BKN009TCU
08:30
I
8 °C 4 km 600 ft 080° 080° 4 kt METAR LFPO 260730Z 08004KT 4000 -RADZ FEW003 BKN006 BKN012 08/07 Q0993 TEMPO 9999 BKN009TCU
08:00
I
8 °C 7 km 600 ft 090° 090° 4 kt METAR LFPO 260700Z 09004KT 7000 -RA FEW004 BKN006 BKN012 08/07 Q0992 TEMPO BKN009TCU
07:30
I
8 °C 10 km+ 600 ft 090° 090° 4 kt METAR LFPO 260630Z 09004KT 9999 -RA FEW004 BKN006 08/07 Q0992 TEMPO BKN009TCU
07:00
I
8 °C 10 km+ 600 ft 080° 080° 4 kt METAR LFPO 260600Z 08004KT 9999 -RA OVC006 08/07 Q0991 TEMPO -SHRA BKN009TCU